Time;durP1;ratioP1;P1;durP2;ratioP2;P2;SDS_P1;SDS_P2;PMS_P1;PMS_P2;Temp;Humidity;BMP_temperature;BMP_pressure;BME280_temperature;BME280_humidity;BME280_pressure;Samples;Min_cycle;Max_cycle;Signal;HPM_P1;HPM_P2
2023/03/20 00:00:32;;;;;;;16.00;15.20;;;5.40;99.20;;;;;;5058844;28;20040;-75
2023/03/20 00:03:05;;;;;;;13.18;12.40;;;5.40;99.10;;;;;;5053283;28;20025;-79
2023/03/20 00:05:32;;;;;;;11.30;10.70;;;5.40;99.20;;;;;;5057782;28;20020;-78
2023/03/20 00:07:59;;;;;;;11.05;10.52;;;5.40;99.20;;;;;;5057967;28;20043;-78
2023/03/20 00:10:46;;;;;;;12.13;11.52;;;5.40;99.20;;;;;;5054885;28;20025;-75
2023/03/20 00:13:22;;;;;;;20.50;19.60;;;5.30;99.40;;;;;;5053598;28;20080;-75
2023/03/20 00:15:47;;;;;;;15.80;14.60;;;5.40;99.80;;;;;;5051335;28;20500;-75
2023/03/20 00:18:24;;;;;;;11.85;11.25;;;5.50;99.90;;;;;;5055804;28;20091;-77
2023/03/20 00:20:52;;;;;;;12.00;11.38;;;5.60;99.90;;;;;;5058310;28;20160;-79
2023/03/20 00:23:18;;;;;;;10.90;10.32;;;5.70;99.90;;;;;;5068089;28;20711;-77
2023/03/20 00:25:46;;;;;;;11.90;11.30;;;5.70;99.90;;;;;;5056192;28;20072;-79
2023/03/20 00:28:29;;;;;;;12.05;11.30;;;5.80;99.90;;;;;;5054455;28;20659;-76
2023/03/20 00:30:57;;;;;;;11.98;11.07;;;5.80;99.90;;;;;;5048212;28;20068;-78
2023/03/20 00:33:23;;;;;;;12.25;11.65;;;5.80;99.90;;;;;;5054522;28;20138;-76
2023/03/20 00:35:50;;;;;;;11.82;11.23;;;5.80;99.90;;;;;;5053716;28;20067;-77
2023/03/20 00:38:16;;;;;;;12.73;12.02;;;5.90;99.90;;;;;;5056961;28;20033;-78
2023/03/20 00:40:41;;;;;;;12.50;11.75;;;5.90;99.90;;;;;;5054477;28;20064;-76
2023/03/20 00:43:11;;;;;;;12.25;11.65;;;6.00;99.90;;;;;;5058007;28;20102;-75
2023/03/20 00:45:37;;;;;;;12.45;11.55;;;6.00;99.90;;;;;;5056399;28;20134;-75
2023/03/20 00:48:03;;;;;;;11.95;11.32;;;6.00;99.70;;;;;;5058179;28;20212;-75
2023/03/20 00:50:30;;;;;;;10.38;9.68;;;6.00;99.60;;;;;;5050432;28;20043;-75
2023/03/20 00:52:57;;;;;;;10.93;10.32;;;5.90;99.60;;;;;;5057108;28;20025;-78
2023/03/20 00:55:25;;;;;;;12.75;12.05;;;5.80;99.50;;;;;;5051686;28;20061;-76
2023/03/20 00:57:54;;;;;;;11.45;10.85;;;5.80;99.40;;;;;;5057528;28;20028;-75
2023/03/20 01:00:29;;;;;;;11.00;10.40;;;5.70;99.50;;;;;;5052045;28;20023;-75
2023/03/20 01:02:56;;;;;;;10.73;10.13;;;5.70;99.50;;;;;;5060199;28;20070;-76
2023/03/20 01:05:23;;;;;;;11.27;10.68;;;5.60;99.50;;;;;;5052565;28;20032;-76
2023/03/20 01:07:49;;;;;;;10.35;9.77;;;5.60;99.50;;;;;;5057999;28;20029;-76
2023/03/20 01:10:16;;;;;;;10.35;9.77;;;5.50;99.70;;;;;;5056637;28;20065;-76
2023/03/20 01:12:43;;;;;;;10.55;9.98;;;5.50;99.60;;;;;;5058844;28;20047;-75
2023/03/20 01:15:24;;;;;;;8.95;8.45;;;5.50;99.80;;;;;;5052915;28;20152;-75
2023/03/20 01:17:49;;;;;;;9.43;8.93;;;5.40;99.70;;;;;;5056007;28;20100;-75
2023/03/20 01:20:28;;;;;;;9.68;9.15;;;5.50;99.80;;;;;;5050383;28;20028;-75
2023/03/20 01:22:54;;;;;;;10.13;9.50;;;5.50;99.90;;;;;;5055823;28;20044;-75
2023/03/20 01:25:20;;;;;;;10.48;9.88;;;5.50;99.90;;;;;;5054338;28;20029;-75
2023/03/20 01:27:52;;;;;;;9.88;9.32;;;5.50;99.90;;;;;;5058572;28;20040;-75
2023/03/20 01:30:24;;;;;;;9.38;8.82;;;5.60;99.90;;;;;;5076612;28;20029;-75
2023/03/20 01:32:51;;;;;;;9.45;8.93;;;5.70;99.90;;;;;;5058563;28;20032;-76
2023/03/20 01:35:20;;;;;;;11.25;10.65;;;5.80;99.90;;;;;;5055828;28;20044;-75
2023/03/20 01:37:47;;;;;;;10.07;9.40;;;5.90;99.90;;;;;;5059355;28;20509;-76
2023/03/20 01:40:29;;;;;;;9.68;9.18;;;5.90;99.80;;;;;;5051508;28;20548;-75
2023/03/20 01:42:55;;;;;;;10.02;9.43;;;6.00;99.70;;;;;;5059403;28;20387;-75
2023/03/20 01:45:25;;;;;;;10.60;9.85;;;6.00;99.60;;;;;;5057528;28;20029;-77
2023/03/20 01:47:51;;;;;;;10.02;9.13;;;6.00;99.50;;;;;;5039980;28;20390;-75
2023/03/20 01:50:23;;;;;;;9.48;8.98;;;6.00;99.40;;;;;;5056427;28;20033;-75
2023/03/20 01:52:55;;;;;;;9.50;8.90;;;6.00;99.30;;;;;;5056661;28;20024;-75
2023/03/20 01:55:23;;;;;;;12.10;11.20;;;6.00;99.60;;;;;;5053465;28;20036;-75
2023/03/20 01:57:51;;;;;;;9.57;8.93;;;6.00;99.20;;;;;;5057011;28;20036;-75
2023/03/20 02:00:17;;;;;;;9.55;8.90;;;6.10;99.10;;;;;;5050670;28;20501;-75
2023/03/20 02:02:45;;;;;;;10.23;9.63;;;6.10;99.00;;;;;;5058338;28;20032;-76
2023/03/20 02:05:14;;;;;;;9.88;9.25;;;6.20;99.00;;;;;;5054426;28;20222;-75
2023/03/20 02:07:40;;;;;;;9.05;8.48;;;6.10;98.90;;;;;;5057921;28;20028;-75
2023/03/20 02:10:13;;;;;;;9.43;8.82;;;6.10;98.90;;;;;;5036157;28;20466;-76
2023/03/20 02:12:39;;;;;;;8.82;8.32;;;6.10;98.80;;;;;;5062348;28;20034;-76
2023/03/20 02:15:06;;;;;;;9.57;8.98;;;6.00;98.70;;;;;;5052951;28;20078;-77
2023/03/20 02:17:32;;;;;;;10.18;9.57;;;6.00;98.80;;;;;;5059573;28;20048;-76
2023/03/20 02:20:00;;;;;;;9.35;8.65;;;6.00;99.00;;;;;;5052227;28;20021;-75
2023/03/20 02:23:10;;;;;;;9.23;8.60;;;6.10;99.00;;;;;;5059166;28;20458;-75
2023/03/20 02:25:36;;;;;;;8.35;7.85;;;6.10;98.90;;;;;;5051459;28;20106;-76
2023/03/20 02:28:07;;;;;;;8.82;8.20;;;6.20;98.80;;;;;;5049926;28;20056;-75
2023/03/20 02:30:55;;;;;;;8.88;8.38;;;6.20;98.60;;;;;;5051859;28;20036;-78
2023/03/20 02:33:35;;;;;;;9.40;8.80;;;6.20;98.60;;;;;;5049283;28;20026;-75
2023/03/20 02:36:26;;;;;;;8.77;8.18;;;6.30;98.50;;;;;;5050518;28;20039;-76
2023/03/20 02:39:11;;;;;;;8.73;8.13;;;6.30;98.40;;;;;;5056218;28;20051;-75
2023/03/20 02:41:46;;;;;;;8.93;8.32;;;6.30;98.40;;;;;;5058006;28;20028;-76
2023/03/20 02:44:15;;;;;;;9.48;8.88;;;6.30;98.30;;;;;;5056194;28;20024;-76
2023/03/20 02:47:25;;;;;;;8.52;7.90;;;6.30;98.20;;;;;;5053081;28;20020;-75
2023/03/20 02:50:06;;;;;;;8.75;8.15;;;6.40;98.20;;;;;;5048277;28;20064;-75
2023/03/20 02:52:55;;;;;;;9.30;8.70;;;6.40;98.10;;;;;;5058451;28;20055;-78
2023/03/20 02:55:46;;;;;;;8.40;7.90;;;6.40;98.10;;;;;;5047878;28;20028;-76
2023/03/20 02:58:27;;;;;;;8.38;7.88;;;6.50;98.00;;;;;;5057253;28;20096;-75
2023/03/20 03:01:27;;;;;;;9.52;8.82;;;6.50;97.90;;;;;;5051403;28;20033;-76
2023/03/20 03:04:01;;;;;;;10.33;9.53;;;6.50;97.70;;;;;;5046903;28;20025;-76
2023/03/20 03:06:32;;;;;;;9.95;9.25;;;6.50;97.60;;;;;;5052431;28;20071;-76
2023/03/20 03:09:23;;;;;;;8.45;7.85;;;6.60;97.40;;;;;;5049809;28;20053;-75
2023/03/20 03:11:56;;;;;;;10.40;9.60;;;6.60;97.20;;;;;;5045213;28;20041;-75
2023/03/20 03:14:34;;;;;;;9.95;9.15;;;6.60;97.10;;;;;;5046078;28;20036;-77
2023/03/20 03:17:02;;;;;;;10.25;9.45;;;6.60;96.90;;;;;;5052333;28;20177;-75
2023/03/20 03:19:28;;;;;;;9.50;8.85;;;6.50;97.10;;;;;;5048353;28;20025;-76
2023/03/20 03:21:54;;;;;;;9.80;9.05;;;6.50;96.80;;;;;;5050391;28;20130;-75
2023/03/20 03:24:33;;;;;;;9.43;8.82;;;6.50;97.10;;;;;;5049140;28;20064;-76
2023/03/20 03:27:02;;;;;;;10.38;9.43;;;6.50;96.70;;;;;;5054783;28;20025;-76
2023/03/20 03:29:33;;;;;;;10.05;9.25;;;6.60;96.60;;;;;;5049586;28;20111;-75
2023/03/20 03:32:01;;;;;;;9.48;8.65;;;6.50;96.50;;;;;;5050879;28;20021;-75
2023/03/20 03:34:27;;;;;;;10.05;9.35;;;6.50;96.50;;;;;;5051545;28;20040;-76
2023/03/20 03:37:16;;;;;;;9.95;9.18;;;6.50;96.50;;;;;;5051487;28;20025;-75
2023/03/20 03:39:50;;;;;;;10.40;9.60;;;6.40;96.50;;;;;;5052724;28;20024;-76
2023/03/20 03:42:32;;;;;;;9.98;9.10;;;6.40;96.60;;;;;;5047664;28;20028;-75
2023/03/20 03:45:13;;;;;;;10.07;9.32;;;6.30;96.60;;;;;;5049368;28;20048;-76
2023/03/20 03:47:57;;;;;;;;;;;6.30;96.70;;;;;;5050330;28;20033;-75
2023/03/20 03:50:34;;;;;;;9.63;8.93;;;6.20;96.70;;;;;;5050655;28;19918;-75
2023/03/20 03:53:06;;;;;;;9.85;9.15;;;6.10;96.90;;;;;;5054295;28;20079;-76
2023/03/20 03:55:55;;;;;;;9.88;9.13;;;6.10;97.10;;;;;;5054330;28;20033;-78
2023/03/20 03:58:29;;;;;;;9.73;8.93;;;6.10;97.00;;;;;;5048258;28;20461;-76
2023/03/20 04:00:57;;;;;;;10.55;9.75;;;6.10;97.10;;;;;;5052587;28;20029;-75
2023/03/20 04:03:29;;;;;;;9.85;9.15;;;6.20;97.10;;;;;;5054514;28;20037;-77
2023/03/20 04:05:58;;;;;;;9.73;8.93;;;6.20;97.00;;;;;;5055808;28;20108;-76
2023/03/20 04:08:24;;;;;;;10.48;9.77;;;6.30;97.00;;;;;;5053400;28;20064;-75
2023/03/20 04:10:50;;;;;;;9.73;8.93;;;6.30;96.80;;;;;;5056112;28;20068;-76
2023/03/20 04:13:15;;;;;;;9.85;9.15;;;6.30;96.80;;;;;;5051515;28;20040;-75
2023/03/20 04:15:42;;;;;;;10.18;9.40;;;6.20;96.80;;;;;;5061382;28;20134;-76
2023/03/20 04:18:15;;;;;;;10.45;9.80;;;6.20;96.80;;;;;;5054483;28;20033;-75
2023/03/20 04:20:41;;;;;;;9.88;9.18;;;6.20;96.80;;;;;;5052300;28;20131;-75
2023/03/20 04:23:07;;;;;;;10.30;9.50;;;6.20;96.80;;;;;;5053108;28;20056;-77
2023/03/20 04:25:33;;;;;;;9.35;8.75;;;6.10;96.80;;;;;;5057572;28;20466;-76
2023/03/20 04:27:59;;;;;;;10.35;9.63;;;6.10;96.80;;;;;;5056020;28;20810;-76
2023/03/20 04:30:24;;;;;;;11.10;10.23;;;6.10;96.90;;;;;;5056960;28;20024;-75
2023/03/20 04:32:50;;;;;;;11.02;10.07;;;6.00;97.00;;;;;;5055677;28;20057;-76
2023/03/20 04:35:16;;;;;;;10.38;9.63;;;6.00;97.10;;;;;;5061845;28;20040;-76
2023/03/20 04:37:44;;;;;;;10.07;9.38;;;6.00;97.10;;;;;;5052885;28;20044;-75
2023/03/20 04:40:10;;;;;;;10.30;9.60;;;6.00;97.20;;;;;;5057317;28;20045;-75
2023/03/20 04:42:36;;;;;;;11.02;10.13;;;6.00;97.30;;;;;;5053808;28;20061;-75
2023/03/20 04:45:02;;;;;;;9.85;9.15;;;5.90;97.20;;;;;;5056903;28;20072;-75
2023/03/20 04:47:27;;;;;;;10.65;9.95;;;5.90;97.30;;;;;;5038115;28;20025;-75
2023/03/20 04:49:53;;;;;;;9.80;9.10;;;6.00;97.30;;;;;;5055099;28;20060;-75
2023/03/20 04:52:19;;;;;;;10.95;10.15;;;6.00;97.10;;;;;;5055769;28;20036;-77
2023/03/20 04:54:44;;;;;;;10.18;9.27;;;6.00;97.20;;;;;;5055569;28;20094;-75
2023/03/20 04:57:10;;;;;;;10.90;10.02;;;6.00;97.20;;;;;;5052152;28;20073;-75
2023/03/20 04:59:35;;;;;;;10.30;9.52;;;6.00;97.20;;;;;;5054844;28;20099;-75
2023/03/20 05:02:01;;;;;;;10.80;10.02;;;6.00;97.20;;;;;;5057749;28;20025;-76
2023/03/20 05:04:27;;;;;;;11.75;10.77;;;6.00;97.30;;;;;;5040397;28;20052;-76
2023/03/20 05:06:52;;;;;;;11.15;10.38;;;6.00;97.30;;;;;;5057375;28;20068;-76
2023/03/20 05:09:18;;;;;;;9.63;8.98;;;5.90;97.30;;;;;;5050576;28;20052;-75
2023/03/20 05:11:43;;;;;;;10.98;10.00;;;6.00;97.40;;;;;;5053575;28;20021;-75
2023/03/20 05:14:10;;;;;;;10.35;9.55;;;5.90;97.40;;;;;;5048509;28;20052;-75
2023/03/20 05:16:36;;;;;;;10.48;9.77;;;5.90;97.40;;;;;;5051769;28;20048;-76
2023/03/20 05:19:02;;;;;;;10.20;9.50;;;5.90;97.40;;;;;;5044582;28;20033;-76
2023/03/20 05:21:28;;;;;;;10.52;9.82;;;6.00;97.40;;;;;;5053501;28;20047;-75
2023/03/20 05:23:53;;;;;;;10.55;9.75;;;6.00;97.40;;;;;;5053294;28;20124;-78
2023/03/20 05:26:19;;;;;;;10.65;9.85;;;6.00;97.30;;;;;;5048472;28;20578;-75
2023/03/20 05:28:44;;;;;;;10.02;9.32;;;6.00;97.30;;;;;;5047078;28;20025;-75
2023/03/20 05:31:10;;;;;;;11.02;10.32;;;5.90;97.30;;;;;;5055822;28;20056;-76
2023/03/20 05:33:36;;;;;;;10.77;9.88;;;5.90;97.40;;;;;;5051491;28;20080;-76
2023/03/20 05:36:02;;;;;;;12.15;11.15;;;5.90;97.70;;;;;;5054658;28;20029;-76
2023/03/20 05:38:28;;;;;;;11.60;10.80;;;5.90;97.50;;;;;;5048804;28;20025;-75
2023/03/20 05:41:00;;;;;;;11.15;10.35;;;5.90;97.50;;;;;;5053101;28;20051;-75
2023/03/20 05:43:27;;;;;;;11.73;10.82;;;6.00;97.60;;;;;;5046361;28;20032;-74
2023/03/20 05:45:55;;;;;;;11.60;10.70;;;6.00;97.60;;;;;;5048421;28;20021;-74
2023/03/20 05:48:21;;;;;;;12.68;11.77;;;6.00;97.50;;;;;;5044845;28;20038;-75
2023/03/20 05:50:46;;;;;;;11.57;10.48;;;6.00;97.50;;;;;;5053929;28;20025;-75
2023/03/20 05:53:12;;;;;;;11.82;10.93;;;6.00;97.50;;;;;;5050722;28;20039;-74
2023/03/20 05:55:38;;;;;;;10.55;9.65;;;6.10;97.50;;;;;;5054441;28;20103;-76
2023/03/20 05:58:05;;;;;;;10.48;9.73;;;6.20;97.40;;;;;;5054718;28;20068;-76
2023/03/20 06:00:30;;;;;;;11.80;10.98;;;6.20;97.20;;;;;;5055885;28;20495;-76
2023/03/20 06:02:56;;;;;;;10.55;9.75;;;6.30;97.20;;;;;;5051173;28;20064;-79
2023/03/20 06:05:21;;;;;;;10.80;10.00;;;6.30;97.00;;;;;;5049404;28;20104;-77
2023/03/20 06:07:47;;;;;;;11.00;10.18;;;6.40;97.10;;;;;;5049685;28;20749;-76
2023/03/20 06:10:13;;;;;;;10.93;10.13;;;6.40;96.90;;;;;;5050902;28;20046;-75
2023/03/20 06:12:39;;;;;;;11.13;10.32;;;6.40;96.90;;;;;;5050091;28;20083;-75
2023/03/20 06:15:05;;;;;;;10.65;9.90;;;6.40;96.90;;;;;;5048098;28;20033;-76
2023/03/20 06:17:31;;;;;;;10.35;9.45;;;6.40;96.90;;;;;;5055543;28;20123;-76
2023/03/20 06:19:56;;;;;;;10.18;9.48;;;6.40;96.60;;;;;;5054189;28;20117;-75
2023/03/20 06:22:22;;;;;;;10.80;9.90;;;6.50;96.70;;;;;;5052294;28;20063;-79
2023/03/20 06:24:47;;;;;;;10.73;9.93;;;6.60;96.50;;;;;;5057163;28;20035;-79
2023/03/20 06:27:13;;;;;;;10.00;9.10;;;6.60;96.50;;;;;;5050583;28;20036;-77
2023/03/20 06:29:39;;;;;;;9.90;9.20;;;6.70;96.40;;;;;;5037537;28;20126;-76
2023/03/20 06:32:08;;;;;;;10.43;9.60;;;6.60;96.30;;;;;;5052777;28;20502;-77
2023/03/20 06:34:34;;;;;;;10.05;9.38;;;6.60;96.30;;;;;;5052489;28;20030;-77
2023/03/20 06:37:00;;;;;;;10.00;9.27;;;6.70;96.30;;;;;;5054788;28;20056;-80
2023/03/20 06:39:27;;;;;;;9.52;8.82;;;6.80;96.20;;;;;;5058750;28;20064;-77
2023/03/20 06:41:53;;;;;;;10.07;9.25;;;6.90;96.20;;;;;;5055319;28;20501;-82
2023/03/20 06:44:19;;;;;;;9.52;8.88;;;7.00;96.10;;;;;;5055654;28;20045;-79
2023/03/20 06:46:45;;;;;;;10.05;9.25;;;7.10;95.90;;;;;;5054447;28;20495;-77
2023/03/20 06:49:10;;;;;;;9.48;8.88;;;7.20;96.00;;;;;;5051195;28;20044;-76
2023/03/20 06:51:36;;;;;;;9.73;8.93;;;7.20;95.70;;;;;;5051517;28;20128;-76
2023/03/20 06:54:01;;;;;;;9.57;8.88;;;7.20;95.60;;;;;;5053961;28;20376;-83
2023/03/20 06:56:27;;;;;;;9.73;8.90;;;7.10;95.10;;;;;;5051509;28;20029;-78
2023/03/20 06:58:53;;;;;;;9.25;8.55;;;7.20;95.80;;;;;;5051666;28;20100;-84
2023/03/20 07:01:19;;;;;;;9.20;8.60;;;7.10;95.40;;;;;;5046809;28;20403;-81
2023/03/20 07:03:45;;;;;;;9.30;8.63;;;7.10;95.30;;;;;;5055269;28;20108;-79
2023/03/20 07:06:12;;;;;;;8.80;8.07;;;7.10;95.40;;;;;;5053176;28;20024;-82
2023/03/20 07:08:38;;;;;;;8.98;8.32;;;7.20;95.30;;;;;;5051685;28;20029;-80
2023/03/20 07:11:04;;;;;;;7.93;7.32;;;7.30;95.20;;;;;;5053077;28;20506;-81
2023/03/20 07:13:31;;;;;;;8.65;8.05;;;7.40;94.30;;;;;;5054156;28;20097;-83
2023/03/20 07:15:59;;;;;;;8.27;7.68;;;7.50;94.50;;;;;;5051732;28;20495;-79
2023/03/20 07:18:24;;;;;;;8.13;7.45;;;7.60;94.30;;;;;;5052429;28;20037;-82
2023/03/20 07:20:51;;;;;;;8.75;8.00;;;7.60;94.10;;;;;;5056448;28;20036;-79
2023/03/20 07:23:17;;;;;;;7.78;7.28;;;7.70;93.50;;;;;;5049900;28;20043;-82
2023/03/20 07:25:43;;;;;;;8.10;7.57;;;7.80;93.40;;;;;;5051078;28;20025;-80
2023/03/20 07:28:09;;;;;;;7.57;7.07;;;7.90;93.30;;;;;;5054892;28;20510;-79
2023/03/20 07:30:35;;;;;;;7.57;7.03;;;7.90;93.20;;;;;;5055744;28;20112;-81
2023/03/20 07:33:00;;;;;;;7.95;7.30;;;8.00;93.10;;;;;;5054417;28;20110;-81
2023/03/20 07:35:26;;;;;;;7.47;6.97;;;8.20;93.20;;;;;;5053860;28;20222;-82
2023/03/20 07:37:51;;;;;;;7.18;6.68;;;8.30;91.60;;;;;;5056454;28;20040;-85
2023/03/20 07:40:17;;;;;;;7.70;6.95;;;8.30;91.50;;;;;;5061328;28;20035;-86
2023/03/20 07:42:46;;;;;;;7.40;6.90;;;8.70;92.00;;;;;;5052248;28;20510;-78
2023/03/20 07:45:12;;;;;;;5.95;5.60;;;8.80;91.70;;;;;;5054071;28;20025;-83
2023/03/20 07:47:38;;;;;;;6.65;6.13;;;9.10;91.00;;;;;;5052696;28;20040;-81
2023/03/20 07:50:05;;;;;;;5.78;5.38;;;9.10;90.70;;;;;;5060405;28;20442;-82
2023/03/20 07:52:31;;;;;;;6.00;5.60;;;8.80;90.10;;;;;;5056716;28;20025;-82
2023/03/20 07:54:56;;;;;;;6.45;5.95;;;8.70;90.00;;;;;;5049527;28;20537;-81
2023/03/20 07:57:22;;;;;;;6.13;5.72;;;8.90;90.60;;;;;;5041040;28;20119;-83
2023/03/20 07:59:48;;;;;;;6.10;5.70;;;9.00;89.40;;;;;;5042433;28;20039;-83
2023/03/20 08:02:17;;;;;;;6.43;6.03;;;8.90;88.30;;;;;;5058877;28;20029;-83
2023/03/20 08:04:45;;;;;;;6.68;6.18;;;9.00;89.00;;;;;;5055237;28;20042;-85
2023/03/20 08:07:11;;;;;;;6.15;5.75;;;9.10;87.60;;;;;;5058666;28;20087;-83
2023/03/20 08:09:37;;;;;;;5.55;5.25;;;9.70;87.50;;;;;;5056304;28;20029;-86
2023/03/20 08:12:03;;;;;;;5.53;5.20;;;9.50;85.40;;;;;;5058774;28;20052;-80
2023/03/20 08:14:29;;;;;;;5.25;4.85;;;9.90;86.70;;;;;;5053890;28;20047;-84
2023/03/20 08:16:55;;;;;;;5.03;4.63;;;10.10;84.00;;;;;;5051728;28;20037;-81
2023/03/20 08:19:21;;;;;;;5.15;4.85;;;9.90;82.60;;;;;;5039720;28;20033;-85
2023/03/20 08:21:47;;;;;;;5.25;4.95;;;9.90;82.40;;;;;;5054824;28;20140;-84
2023/03/20 08:24:13;;;;;;;5.13;4.82;;;9.70;82.00;;;;;;5056776;28;20040;-85
2023/03/20 08:26:38;;;;;;;5.10;4.80;;;9.80;82.90;;;;;;5053569;28;20102;-84
2023/03/20 08:29:04;;;;;;;5.00;4.70;;;9.30;82.40;;;;;;5055715;28;20031;-81
2023/03/20 08:31:30;;;;;;;5.30;5.00;;;9.40;84.60;;;;;;5054037;28;20037;-82
2023/03/20 08:33:56;;;;;;;5.10;4.80;;;9.30;84.00;;;;;;5047100;28;20039;-86
2023/03/20 08:36:22;;;;;;;5.18;4.78;;;9.10;84.50;;;;;;5054234;28;20032;-83
2023/03/20 08:38:49;;;;;;;5.03;4.72;;;9.00;85.00;;;;;;5052123;28;20082;-84
2023/03/20 08:41:15;;;;;;;5.13;4.82;;;9.00;86.20;;;;;;5051136;28;20021;-81
2023/03/20 08:43:41;;;;;;;4.70;4.47;;;9.10;86.20;;;;;;5054351;28;20064;-84
2023/03/20 08:46:07;;;;;;;4.93;4.72;;;9.40;84.30;;;;;;5053491;28;20041;-88
2023/03/20 08:48:33;;;;;;;4.90;4.60;;;9.20;82.20;;;;;;5053976;28;20029;-83
2023/03/20 08:50:58;;;;;;;4.75;4.45;;;9.40;81.80;;;;;;5051887;28;20025;-82
2023/03/20 08:53:24;;;;;;;4.75;4.47;;;9.70;81.00;;;;;;5037688;28;20028;-83
2023/03/20 08:55:51;;;;;;;4.80;4.50;;;9.70;79.90;;;;;;5052111;28;20035;-82
2023/03/20 08:58:17;;;;;;;4.50;4.20;;;10.00;79.90;;;;;;5057518;28;20036;-82
2023/03/20 09:00:43;;;;;;;4.10;3.90;;;10.10;78.00;;;;;;5052848;28;20383;-85
2023/03/20 09:03:13;;;;;;;3.83;3.63;;;10.20;76.90;;;;;;5053018;28;20030;-84
2023/03/20 09:05:40;;;;;;;4.20;3.90;;;10.10;76.30;;;;;;5050975;28;20057;-82
2023/03/20 09:08:05;;;;;;;3.80;3.60;;;10.10;77.60;;;;;;5053341;28;20705;-84
2023/03/20 09:10:31;;;;;;;4.15;3.95;;;10.50;77.40;;;;;;5052587;28;20053;-81
2023/03/20 09:12:58;;;;;;;4.03;3.83;;;10.30;77.50;;;;;;5043850;28;20072;-80
2023/03/20 09:15:24;;;;;;;4.10;3.90;;;10.30;77.50;;;;;;5047554;28;20024;-77
2023/03/20 09:17:49;;;;;;;4.10;3.90;;;10.30;76.90;;;;;;5045518;28;20453;-78
2023/03/20 09:20:16;;;;;;;4.25;4.05;;;10.40;75.70;;;;;;5052842;28;20029;-80
2023/03/20 09:22:43;;;;;;;4.05;3.75;;;10.50;74.30;;;;;;5052553;28;20430;-77
2023/03/20 09:25:10;;;;;;;3.90;3.70;;;10.50;74.00;;;;;;5051205;28;20128;-80
2023/03/20 09:27:35;;;;;;;4.13;3.92;;;10.90;75.10;;;;;;5046715;28;20034;-78
2023/03/20 09:30:02;;;;;;;4.20;4.00;;;11.00;74.10;;;;;;5044855;28;20044;-78
2023/03/20 09:32:28;;;;;;;4.10;3.90;;;11.20;73.30;;;;;;5052531;28;20438;-78
2023/03/20 09:34:54;;;;;;;4.20;3.90;;;11.20;72.90;;;;;;5046675;28;20053;-80
2023/03/20 09:37:19;;;;;;;4.07;3.88;;;11.10;72.10;;;;;;5028470;28;20818;-81
2023/03/20 09:46:35;;;;;;;3.75;3.55;;;11.00;70.10;;;;;;5049427;28;20051;-78
2023/03/20 09:52:31;;;;;;;3.75;3.55;;;10.80;70.00;;;;;;5055973;28;20031;-81
2023/03/20 09:55:01;;;;;;;3.70;3.50;;;10.90;69.50;;;;;;5054240;28;20021;-80
2023/03/20 09:57:42;;;;;;;3.90;3.70;;;10.90;69.20;;;;;;5057982;28;20024;-82
2023/03/20 10:00:15;;;;;;;4.10;3.90;;;11.30;70.00;;;;;;5051701;28;20047;-79
2023/03/20 10:02:57;;;;;;;4.63;3.80;;;11.00;68.20;;;;;;5056596;28;20040;-80
2023/03/20 10:05:24;;;;;;;3.80;3.60;;;10.70;70.20;;;;;;5051909;28;20074;-77
2023/03/20 10:07:59;;;;;;;3.92;3.72;;;10.90;70.60;;;;;;5056459;28;20558;-81
2023/03/20 10:10:53;;;;;;;3.72;3.53;;;10.70;70.50;;;;;;5050623;28;20032;-83
2023/03/20 10:37:41;;;;;;;3.83;3.63;;;11.10;68.30;;;;;;5043546;28;20426;-84
2023/03/20 10:40:30;;;;;;;3.75;3.60;;;11.40;68.20;;;;;;5050011;28;20099;-82
2023/03/20 10:43:03;;;;;;;3.45;3.35;;;11.60;64.90;;;;;;5048738;28;20032;-80
2023/03/20 10:45:47;;;;;;;3.55;3.45;;;11.70;65.30;;;;;;5042401;28;20036;-84
2023/03/20 10:48:36;;;;;;;3.80;3.60;;;11.80;65.10;;;;;;5045020;28;20044;-83
2023/03/20 10:51:02;;;;;;;3.60;3.50;;;12.20;63.90;;;;;;5044983;28;20028;-83
2023/03/20 10:53:44;;;;;;;4.00;3.70;;;12.40;64.00;;;;;;5048914;28;20108;-82
2023/03/20 10:56:15;;;;;;;3.58;3.47;;;12.20;62.70;;;;;;5047392;28;20056;-79
2023/03/20 10:58:45;;;;;;;3.35;3.25;;;11.80;61.90;;;;;;5051597;28;20116;-81
2023/03/20 11:01:11;;;;;;;;;;;11.60;62.80;;;;;;5046976;28;20048;-80
2023/03/20 11:03:38;;;;;;;3.65;3.40;;;11.90;62.80;;;;;;5048599;28;20412;-78
2023/03/20 11:06:18;;;;;;;3.70;3.55;;;11.50;64.80;;;;;;5052370;28;20025;-78
2023/03/20 11:08:49;;;;;;;3.50;3.40;;;12.00;63.80;;;;;;5048995;28;20040;-82
2023/03/20 11:11:25;;;;;;;3.15;3.05;;;12.20;63.10;;;;;;5048895;28;20278;-79
2023/03/20 11:13:51;;;;;;;3.40;3.30;;;12.30;61.70;;;;;;5048379;28;20587;-78
2023/03/20 11:16:21;;;;;;;3.95;3.75;;;12.50;62.20;;;;;;5055946;28;20040;-82
2023/03/20 11:18:49;;;;;;;3.60;3.40;;;12.60;62.20;;;;;;5056599;28;20059;-81
2023/03/20 11:21:20;;;;;;;3.67;3.47;;;12.50;61.90;;;;;;5056242;28;20033;-79
2023/03/20 11:23:46;;;;;;;3.28;3.17;;;12.40;62.90;;;;;;5050139;28;20025;-84
2023/03/20 11:26:18;;;;;;;3.78;3.58;;;12.20;62.10;;;;;;5052519;28;20041;-78
2023/03/20 11:28:56;;;;;;;3.60;3.50;;;12.10;62.60;;;;;;5053313;28;20025;-78
2023/03/20 11:31:34;;;;;;;3.72;3.53;;;12.90;62.70;;;;;;5058475;28;20039;-83
2023/03/20 11:34:21;;;;;;;4.10;3.90;;;13.00;61.00;;;;;;5054133;28;20120;-80
2023/03/20 11:36:56;;;;;;;3.90;3.70;;;12.80;60.60;;;;;;5057582;28;20068;-85
2023/03/20 11:39:33;;;;;;;3.33;3.20;;;12.90;60.60;;;;;;5055333;28;20060;-84
2023/03/20 11:42:04;;;;;;;3.30;3.20;;;12.80;60.40;;;;;;5040217;28;20040;-85
2023/03/20 11:44:35;;;;;;;3.50;3.38;;;12.20;61.00;;;;;;5052807;28;20525;-82
2023/03/20 11:47:02;;;;;;;3.30;3.17;;;12.00;62.10;;;;;;5054103;28;20044;-80
2023/03/20 11:49:29;;;;;;;3.40;3.20;;;11.90;62.70;;;;;;5050180;28;20398;-84
2023/03/20 11:52:01;;;;;;;3.50;3.35;;;11.80;64.20;;;;;;5055059;28;20024;-84
2023/03/20 11:54:28;;;;;;;3.60;3.40;;;11.70;60.90;;;;;;5047276;28;20061;-82
2023/03/20 11:56:57;;;;;;;3.35;3.25;;;11.70;60.80;;;;;;5049327;28;20047;-84
2023/03/20 11:59:34;;;;;;;3.30;3.20;;;11.90;61.50;;;;;;5050183;28;20521;-84
2023/03/20 12:02:02;;;;;;;3.50;3.40;;;11.50;61.50;;;;;;5048544;28;20068;-85
2023/03/20 12:04:30;;;;;;;3.50;3.30;;;11.70;62.40;;;;;;5049352;28;20032;-82
2023/03/20 12:07:14;;;;;;;3.50;3.30;;;12.10;61.60;;;;;;5051696;28;20020;-81
2023/03/20 12:09:48;;;;;;;3.70;3.50;;;12.00;60.80;;;;;;5050900;28;20024;-81
2023/03/20 12:12:32;;;;;;;3.58;3.47;;;12.00;60.30;;;;;;5048376;28;20095;-84
2023/03/20 12:15:16;;;;;;;3.28;3.17;;;11.60;61.60;;;;;;5050982;28;20607;-84
2023/03/20 12:17:50;;;;;;;3.58;3.45;;;11.70;62.30;;;;;;5049395;28;20172;-82
2023/03/20 12:20:30;;;;;;;4.35;4.05;;;11.50;62.30;;;;;;5049843;28;20033;-80
2023/03/20 12:23:01;;;;;;;4.00;3.80;;;11.50;62.00;;;;;;5053534;28;20033;-81
2023/03/20 12:25:36;;;;;;;7.68;7.28;;;11.80;62.60;;;;;;5046035;28;20085;-84
2023/03/20 12:28:10;;;;;;;3.80;3.60;;;11.60;62.50;;;;;;5048624;28;20028;-85
2023/03/20 12:31:02;;;;;;;3.65;3.55;;;12.10;61.30;;;;;;5049439;28;20025;-82
2023/03/20 12:33:50;;;;;;;3.83;3.63;;;12.50;59.60;;;;;;5046282;28;20037;-81
2023/03/20 12:36:23;;;;;;;4.10;3.90;;;13.00;59.70;;;;;;5046916;28;20091;-80
2023/03/20 12:38:49;;;;;;;3.85;3.65;;;13.10;57.40;;;;;;5051670;28;20025;-83
2023/03/20 12:41:24;;;;;;;3.90;3.70;;;13.00;55.80;;;;;;5049987;28;20399;-83
2023/03/20 12:44:01;;;;;;;3.60;3.40;;;12.70;57.10;;;;;;5049624;28;20454;-81
2023/03/20 12:46:35;;;;;;;3.47;3.38;;;13.10;57.30;;;;;;5058595;28;20771;-79
2023/03/20 12:49:19;;;;;;;3.80;3.47;;;13.30;57.60;;;;;;5044272;28;20036;-82
2023/03/20 12:52:10;;;;;;;3.60;3.40;;;13.60;56.90;;;;;;5049651;28;20033;-80
2023/03/20 12:55:16;;;;;;;3.25;3.05;;;13.70;54.90;;;;;;5050635;28;20033;-80
2023/03/20 12:57:42;;;;;;;3.70;3.60;;;13.40;57.40;;;;;;5020929;28;20554;-81
2023/03/20 13:00:17;;;;;;;3.40;3.30;;;12.90;56.20;;;;;;5057355;28;20160;-79
2023/03/20 13:03:07;;;;;;;3.58;3.38;;;12.70;57.90;;;;;;5049328;28;20047;-79
2023/03/20 13:05:46;;;;;;;3.60;3.47;;;13.00;55.20;;;;;;5048791;28;20029;-82
2023/03/20 13:08:42;;;;;;;3.60;3.47;;;13.50;56.10;;;;;;5050832;28;20071;-81
2023/03/20 13:11:38;;;;;;;3.35;3.22;;;13.40;54.70;;;;;;5056983;28;20032;-79
2023/03/20 13:14:15;;;;;;;3.47;3.38;;;13.00;55.30;;;;;;5049229;28;20431;-81
2023/03/20 13:17:08;;;;;;;3.47;3.35;;;12.70;56.10;;;;;;5047975;28;20041;-77
2023/03/20 13:19:58;;;;;;;3.30;3.20;;;13.60;54.40;;;;;;5048425;28;20067;-78
2023/03/20 13:22:54;;;;;;;3.25;3.15;;;13.20;54.00;;;;;;5046992;28;20033;-79
2023/03/20 13:25:44;;;;;;;3.25;3.05;;;12.50;57.00;;;;;;5051917;28;20056;-79
2023/03/20 13:28:18;;;;;;;3.20;3.10;;;12.50;56.40;;;;;;5050659;28;20458;-80
2023/03/20 13:31:12;;;;;;;3.20;3.10;;;12.30;55.00;;;;;;5057050;28;20036;-80
2023/03/20 13:33:41;;;;;;;3.28;3.17;;;12.50;58.70;;;;;;5047634;28;20082;-80
2023/03/20 13:36:38;;;;;;;3.40;3.30;;;12.70;57.20;;;;;;5048047;28;20449;-80
2023/03/20 13:39:21;;;;;;;3.30;3.20;;;12.50;55.50;;;;;;5047827;28;20031;-81
2023/03/20 13:41:49;;;;;;;3.50;3.40;;;12.00;58.70;;;;;;5048559;28;20040;-81
2023/03/20 13:44:19;;;;;;;3.40;3.30;;;12.00;57.70;;;;;;5053437;28;20071;-81